Good Springs, Texas
Current Conditions -  °F | °C
As of 7:35 AM on Friday 28 Nov 2014 (Local Time) from KRFI Reporting Station
Clear Clear  
Wind Chill: 37°   Ceiling: Unl
Heat Index: 37°   Visibility: 10mi
Dew Point: 34°   Wind: 3mph
Humidity: 89%   Direction: 150°SSE
Pressure: 30.35"   Gusts: NA
Location:  32.1449°N, 94.7416°W
Report Text: KRFI 281335Z AUTO 15003KT 10SM CLR 03/01 A3035 RMK AO2 T00270011
Loading
Personal Weather Stations






























Interactive Weather Map New forecast layout! Learn more

10-Day Weather Forecast

Advertisements
Track Severe Weather on mobile